Ledoux, New Mexico
Current Conditions -  °F | °C
As of 5:15 PM on Wednesday 22 Oct 2014 (Local Time) from KAXX Reporting Station
Scattered Clouds Scattered Clouds  
Wind Chill: 15°   Ceiling: Unl
Heat Index: 15°   Visibility: 10mi
Dew Point: -2°   Wind: 7mph
Humidity: 32%   Direction: 260°W
Pressure: 30.26"   Gusts: NA
Location:  36.0379°N, 105.295°W
Report Text: KAXX 222315Z AUTO 26006KT 10SM SCT070 SCT080 15/M02 A3026 RMK AO2 T01461020
Loading
Personal Weather Stations






























Interactive Weather Map
Tropical Storm Tracking
New forecast layout! Learn more

10-Day Weather Forecast

Advertisements
Track Severe Weather on mobile